Time;durP1;ratioP1;P1;durP2;ratioP2;P2;SDS_P1;SDS_P2;PMS_P1;PMS_P2;Temp;Humidity;BMP_temperature;BMP_pressure;BME280_temperature;BME280_humidity;BME280_pressure;Samples;Min_cycle;Max_cycle;Signal;HPM_P1;HPM_P2
2021/10/26 00:01:07;;;;;;;6.05;3.35;;;1.90;89.20;;;;;;5031893;28;20026;-79
2021/10/26 00:03:35;;;;;;;5.53;3.25;;;1.90;89.30;;;;;;5027136;28;20033;-78
2021/10/26 00:06:01;;;;;;;6.85;3.40;;;1.90;89.40;;;;;;5031303;28;20105;-79
2021/10/26 00:08:27;;;;;;;5.47;3.38;;;1.90;89.40;;;;;;5037339;28;20029;-80
2021/10/26 00:10:53;;;;;;;5.00;3.40;;;1.90;89.50;;;;;;5033319;28;20039;-79
2021/10/26 00:13:19;;;;;;;6.40;3.63;;;1.90;89.60;;;;;;5031679;28;20017;-79
2021/10/26 00:15:45;;;;;;;4.93;3.65;;;1.90;89.70;;;;;;5033598;28;20028;-80
2021/10/26 00:18:12;;;;;;;6.07;4.15;;;1.90;89.70;;;;;;5033572;28;20113;-79
2021/10/26 00:20:38;;;;;;;5.65;3.45;;;1.90;89.80;;;;;;5033286;28;20029;-81
2021/10/26 00:23:04;;;;;;;5.25;3.60;;;1.90;89.80;;;;;;5032788;28;20025;-81
2021/10/26 00:25:30;;;;;;;5.60;3.25;;;1.80;89.90;;;;;;5032739;28;20087;-80
2021/10/26 00:27:56;;;;;;;4.32;3.15;;;1.90;90.00;;;;;;5032899;28;20026;-80
2021/10/26 00:30:22;;;;;;;4.70;3.10;;;1.90;90.00;;;;;;5032773;28;20483;-80
2021/10/26 00:32:47;;;;;;;6.32;3.78;;;1.80;90.00;;;;;;5032945;28;20025;-80
2021/10/26 00:35:13;;;;;;;5.20;3.53;;;1.80;90.10;;;;;;5032966;28;20071;-81
2021/10/26 00:37:39;;;;;;;5.40;3.28;;;1.80;90.10;;;;;;5032883;28;20022;-80
2021/10/26 00:40:08;;;;;;;5.43;3.45;;;1.80;90.20;;;;;;5032583;28;20017;-79
2021/10/26 00:42:34;;;;;;;6.38;3.58;;;1.80;90.30;;;;;;5032500;28;20021;-80
2021/10/26 00:45:01;;;;;;;5.55;3.90;;;1.80;90.30;;;;;;5032754;28;20029;-80
2021/10/26 00:47:27;;;;;;;7.45;3.58;;;1.80;90.30;;;;;;5032899;28;20017;-80
2021/10/26 00:49:53;;;;;;;5.30;3.08;;;1.80;90.40;;;;;;5032665;28;20033;-80
2021/10/26 00:52:19;;;;;;;6.30;3.25;;;1.80;90.40;;;;;;5032976;28;20027;-80
2021/10/26 00:54:45;;;;;;;5.63;3.45;;;1.80;90.50;;;;;;5032554;28;20045;-80
2021/10/26 00:57:11;;;;;;;7.97;3.75;;;1.80;90.70;;;;;;5032689;28;20401;-80
2021/10/26 00:59:37;;;;;;;7.55;3.75;;;1.80;90.70;;;;;;5033038;28;20021;-81
2021/10/26 01:02:04;;;;;;;6.55;4.13;;;1.80;90.60;;;;;;5034646;28;20021;-81
2021/10/26 01:04:30;;;;;;;7.28;3.65;;;1.80;90.70;;;;;;5036576;28;20445;-80
2021/10/26 01:06:57;;;;;;;5.28;3.50;;;1.80;90.70;;;;;;5038407;28;20021;-79
2021/10/26 01:09:23;;;;;;;11.27;4.72;;;1.70;90.80;;;;;;5036232;28;20089;-79
2021/10/26 01:11:49;;;;;;;5.93;3.75;;;1.70;90.90;;;;;;5036598;28;20108;-79
2021/10/26 01:14:16;;;;;;;6.43;3.65;;;1.70;90.90;;;;;;5036404;28;20026;-80
2021/10/26 01:16:42;;;;;;;;;;;1.70;91.00;;;;;;5026531;28;20033;-79
2021/10/26 01:19:08;;;;;;;6.85;3.83;;;1.70;90.90;;;;;;5016341;28;19906;-80
2021/10/26 01:21:35;;;;;;;6.13;4.63;;;1.70;91.00;;;;;;5016461;28;20021;-82
2021/10/26 01:24:01;;;;;;;9.80;4.33;;;1.60;91.00;;;;;;5016690;28;20116;-79
2021/10/26 01:26:27;;;;;;;6.05;3.30;;;1.70;91.20;;;;;;5000198;28;20037;-81
2021/10/26 01:28:53;;;;;;;6.32;3.60;;;1.60;91.20;;;;;;5018984;28;20048;-80
2021/10/26 01:31:19;;;;;;;6.03;3.90;;;1.70;91.60;;;;;;5016640;28;20348;-80
2021/10/26 01:33:45;;;;;;;5.63;4.00;;;1.70;91.30;;;;;;5016312;28;20044;-81
2021/10/26 01:36:11;;;;;;;6.38;3.80;;;1.70;91.30;;;;;;5015890;28;20040;-79
2021/10/26 01:38:37;;;;;;;5.82;3.22;;;1.70;91.40;;;;;;5016290;28;20018;-81
2021/10/26 01:41:03;;;;;;;6.03;4.03;;;1.70;91.40;;;;;;5016274;28;20029;-80
2021/10/26 01:43:29;;;;;;;5.63;3.38;;;1.70;91.50;;;;;;5031949;28;20377;-80
2021/10/26 01:45:55;;;;;;;5.63;4.30;;;1.70;91.50;;;;;;5036273;28;20105;-80
2021/10/26 01:48:22;;;;;;;4.68;3.60;;;1.70;91.50;;;;;;5018059;28;20021;-80
2021/10/26 01:50:48;;;;;;;6.13;4.03;;;1.70;91.60;;;;;;5035765;28;20053;-80
2021/10/26 01:53:14;;;;;;;7.40;3.97;;;1.70;91.60;;;;;;5017804;28;20026;-80
2021/10/26 01:55:40;;;;;;;7.95;4.13;;;1.70;91.60;;;;;;5035255;28;20041;-79
2021/10/26 01:58:06;;;;;;;6.90;5.35;;;1.70;91.60;;;;;;5035440;28;20052;-80
2021/10/26 02:00:32;;;;;;;5.72;3.90;;;1.70;91.60;;;;;;5035453;28;20100;-81
2021/10/26 02:02:59;;;;;;;6.38;3.88;;;1.70;91.70;;;;;;5035359;28;20022;-80
2021/10/26 02:05:26;;;;;;;5.53;4.03;;;1.70;91.80;;;;;;5035282;28;20062;-80
2021/10/26 02:07:53;;;;;;;7.15;4.15;;;1.70;91.70;;;;;;5017325;28;20434;-79
2021/10/26 02:10:20;;;;;;;5.05;3.72;;;1.70;91.80;;;;;;5035070;28;20037;-79
2021/10/26 02:12:46;;;;;;;6.60;4.47;;;1.70;91.80;;;;;;5033989;28;20104;-80
2021/10/26 02:15:12;;;;;;;6.32;3.85;;;1.70;91.80;;;;;;5034254;28;20033;-80
2021/10/26 02:17:37;;;;;;;8.10;4.97;;;1.70;91.90;;;;;;5017509;28;20021;-80
2021/10/26 02:20:05;;;;;;;9.48;3.60;;;1.70;91.90;;;;;;5035092;28;20033;-80
2021/10/26 02:22:30;;;;;;;9.15;4.38;;;1.70;91.80;;;;;;5034871;28;20052;-80
2021/10/26 02:24:56;;;;;;;7.15;4.80;;;1.60;91.80;;;;;;5034860;28;20398;-80
2021/10/26 02:27:22;;;;;;;8.18;4.47;;;1.60;91.90;;;;;;5034935;28;20034;-81
2021/10/26 02:29:48;;;;;;;7.57;3.95;;;1.60;91.90;;;;;;5034831;28;20030;-79
2021/10/26 02:32:14;;;;;;;8.10;4.53;;;1.60;91.90;;;;;;5034964;28;20067;-80
2021/10/26 02:34:40;;;;;;;7.78;4.10;;;1.60;92.00;;;;;;5035127;28;20083;-79
2021/10/26 02:37:06;;;;;;;8.82;4.28;;;1.60;92.00;;;;;;5034725;28;20021;-81
2021/10/26 02:39:32;;;;;;;8.98;4.32;;;1.60;91.90;;;;;;5034974;28;20021;-80
2021/10/26 02:41:58;;;;;;;7.82;4.43;;;1.60;92.00;;;;;;5036725;28;20454;-81
2021/10/26 02:44:23;;;;;;;7.43;4.22;;;1.50;92.00;;;;;;5034442;28;20555;-80
2021/10/26 02:46:49;;;;;;;6.88;4.47;;;1.50;92.00;;;;;;5034583;28;20164;-80
2021/10/26 02:49:15;;;;;;;7.93;4.53;;;1.50;92.10;;;;;;5016508;28;20021;-80
2021/10/26 02:51:41;;;;;;;6.40;3.78;;;1.50;92.10;;;;;;5034242;28;20171;-82
2021/10/26 02:54:07;;;;;;;6.63;3.65;;;1.50;92.10;;;;;;5034379;28;20041;-80
2021/10/26 02:56:33;;;;;;;7.15;4.55;;;1.50;92.20;;;;;;5036897;28;20064;-80
2021/10/26 02:58:59;;;;;;;10.48;5.25;;;1.50;92.20;;;;;;5036468;28;20386;-80
2021/10/26 03:01:25;;;;;;;9.10;4.38;;;1.50;92.20;;;;;;5039734;28;20104;-81
2021/10/26 03:03:51;;;;;;;7.22;4.13;;;1.50;92.30;;;;;;5033952;28;20021;-80
2021/10/26 03:06:17;;;;;;;11.05;5.32;;;1.50;92.30;;;;;;5034430;28;20393;-80
2021/10/26 03:08:43;;;;;;;7.53;4.40;;;1.50;92.40;;;;;;5034086;28;20021;-80
2021/10/26 03:11:09;;;;;;;7.05;4.35;;;1.50;92.40;;;;;;5033989;28;20375;-81
2021/10/26 03:13:35;;;;;;;9.57;3.65;;;1.50;92.40;;;;;;5032948;28;20030;-80
2021/10/26 03:16:01;;;;;;;5.57;4.32;;;1.50;92.40;;;;;;5034235;28;20512;-81
2021/10/26 03:18:27;;;;;;;6.63;3.95;;;1.40;92.50;;;;;;5034904;28;20022;-81
2021/10/26 03:20:57;;;;;;;7.53;4.55;;;1.40;92.50;;;;;;5034297;28;20021;-81
2021/10/26 03:23:23;;;;;;;8.93;4.45;;;1.40;92.40;;;;;;5034348;28;20478;-82
2021/10/26 03:25:50;;;;;;;5.78;3.75;;;1.40;92.40;;;;;;5033673;28;20026;-82
2021/10/26 03:28:16;;;;;;;7.10;4.22;;;1.40;92.50;;;;;;5033808;28;20017;-81
2021/10/26 03:30:42;;;;;;;7.40;4.65;;;1.40;92.50;;;;;;5033162;28;20473;-80
2021/10/26 03:33:08;;;;;;;8.45;4.63;;;1.30;92.50;;;;;;5034152;28;20029;-81
2021/10/26 03:35:34;;;;;;;10.52;5.15;;;1.30;92.60;;;;;;5034172;28;20406;-81
2021/10/26 03:38:05;;;;;;;7.90;4.45;;;1.30;92.60;;;;;;5016682;28;20029;-80
2021/10/26 03:40:31;;;;;;;7.60;4.80;;;1.30;92.70;;;;;;5034108;28;20430;-81
2021/10/26 03:42:57;;;;;;;11.60;5.15;;;1.30;92.70;;;;;;5033973;28;20017;-81
2021/10/26 03:45:23;;;;;;;12.88;5.05;;;1.30;92.70;;;;;;5033955;28;20393;-81
2021/10/26 03:47:49;;;;;;;8.32;4.55;;;1.30;92.80;;;;;;5033541;28;20025;-80
2021/10/26 03:50:16;;;;;;;11.32;5.88;;;1.30;92.80;;;;;;5035818;28;20029;-82
2021/10/26 03:52:42;;;;;;;7.85;4.85;;;1.30;92.80;;;;;;5016211;28;20041;-81
2021/10/26 03:55:09;;;;;;;7.57;4.95;;;1.20;92.80;;;;;;5033541;28;20439;-80
2021/10/26 03:57:35;;;;;;;7.57;4.60;;;1.30;93.00;;;;;;5034081;28;20076;-81
2021/10/26 04:00:02;;;;;;;11.63;4.95;;;1.30;93.00;;;;;;5016309;28;20490;-80
2021/10/26 04:02:29;;;;;;;9.70;4.63;;;1.20;93.00;;;;;;5033572;28;20028;-79
2021/10/26 04:05:04;;;;;;;13.13;4.83;;;1.20;93.00;;;;;;5026822;28;20478;-81
2021/10/26 04:07:31;;;;;;;11.85;6.28;;;1.30;93.00;;;;;;5013521;28;20104;-80
2021/10/26 04:10:04;;;;;;;11.75;5.97;;;1.30;93.10;;;;;;5026270;28;20081;-80
2021/10/26 04:12:30;;;;;;;9.60;6.93;;;1.30;93.10;;;;;;5033560;28;20071;-80
2021/10/26 04:14:58;;;;;;;10.52;6.25;;;1.30;93.10;;;;;;5033671;28;20429;-80
2021/10/26 04:17:25;;;;;;;8.45;5.97;;;1.30;93.10;;;;;;5035610;28;20104;-80
2021/10/26 04:19:54;;;;;;;6.65;4.55;;;1.30;93.10;;;;;;5033110;28;20032;-81
2021/10/26 04:22:21;;;;;;;15.35;5.25;;;1.30;93.10;;;;;;5031731;28;20104;-78
2021/10/26 04:24:49;;;;;;;7.57;5.30;;;1.30;93.10;;;;;;5032920;28;20022;-80
2021/10/26 04:27:16;;;;;;;8.13;4.03;;;1.30;93.00;;;;;;5032715;28;20033;-80
2021/10/26 04:29:42;;;;;;;7.70;4.47;;;1.30;93.10;;;;;;5032768;28;20021;-80
2021/10/26 04:32:09;;;;;;;7.45;4.80;;;1.30;93.00;;;;;;5032894;28;20057;-80
2021/10/26 04:34:36;;;;;;;7.97;4.60;;;1.30;93.00;;;;;;5033466;28;20029;-81
2021/10/26 04:37:06;;;;;;;8.50;4.45;;;1.40;93.00;;;;;;5034173;28;20025;-82
2021/10/26 04:39:33;;;;;;;7.70;4.63;;;1.40;92.90;;;;;;5037510;28;20033;-80
2021/10/26 04:42:00;;;;;;;;;;;1.40;93.00;;;;;;5036290;28;20100;-80
2021/10/26 04:44:25;;;;;;;8.80;5.80;;;1.40;92.80;;;;;;5015428;28;19915;-80
2021/10/26 04:46:51;;;;;;;12.68;5.43;;;1.40;92.80;;;;;;5019022;28;20030;-81
2021/10/26 04:49:17;;;;;;;10.57;5.75;;;1.40;92.80;;;;;;5018844;28;20032;-79
2021/10/26 04:51:43;;;;;;;8.45;4.90;;;1.50;92.80;;;;;;5017520;28;20034;-80
2021/10/26 04:54:09;;;;;;;7.88;4.10;;;1.50;92.80;;;;;;5017864;28;20403;-78
2021/10/26 04:56:35;;;;;;;11.75;5.35;;;1.50;92.70;;;;;;5019109;28;20560;-80
2021/10/26 04:59:01;;;;;;;8.32;4.85;;;1.60;92.70;;;;;;5017987;28;20086;-80
2021/10/26 05:01:26;;;;;;;6.97;4.25;;;1.60;92.60;;;;;;5019982;28;20058;-81
2021/10/26 05:03:52;;;;;;;9.45;5.53;;;1.70;92.50;;;;;;5018272;28;20030;-80
2021/10/26 05:06:18;;;;;;;7.40;4.78;;;1.70;92.40;;;;;;5015677;28;20025;-81
2021/10/26 05:08:45;;;;;;;7.90;4.80;;;1.70;92.30;;;;;;5031142;28;20067;-79
2021/10/26 05:11:11;;;;;;;6.28;4.28;;;1.80;92.30;;;;;;5037486;28;20110;-81
2021/10/26 05:13:37;;;;;;;7.43;4.22;;;1.80;92.10;;;;;;5037109;28;20486;-81
2021/10/26 05:16:03;;;;;;;6.13;4.20;;;1.90;92.00;;;;;;5028433;28;20033;-81
2021/10/26 05:18:31;;;;;;;5.60;3.85;;;1.90;91.90;;;;;;5016308;28;20069;-81
2021/10/26 05:21:00;;;;;;;9.82;4.78;;;2.00;91.90;;;;;;5016423;28;20037;-81
2021/10/26 05:23:26;;;;;;;10.05;5.32;;;2.00;91.80;;;;;;5016301;28;20363;-82
2021/10/26 05:25:52;;;;;;;8.45;4.63;;;2.10;91.70;;;;;;5016421;28;20057;-82
2021/10/26 05:28:18;;;;;;;11.45;5.75;;;2.10;91.60;;;;;;5016016;28;20478;-81
2021/10/26 05:30:44;;;;;;;8.55;4.57;;;2.20;91.60;;;;;;5019192;28;20029;-82
2021/10/26 05:33:10;;;;;;;10.82;5.88;;;2.20;91.40;;;;;;5036113;28;20505;-82
2021/10/26 05:35:36;;;;;;;8.05;5.13;;;2.30;91.20;;;;;;5035768;28;20030;-82
2021/10/26 05:38:02;;;;;;;7.75;5.20;;;2.40;91.10;;;;;;5017707;28;20032;-82
2021/10/26 05:40:28;;;;;;;8.02;5.13;;;2.40;90.90;;;;;;5036025;28;20386;-82
2021/10/26 05:42:54;;;;;;;10.35;6.05;;;2.40;90.80;;;;;;5035662;28;20119;-82
2021/10/26 05:45:20;;;;;;;12.38;5.53;;;2.50;90.70;;;;;;5033217;28;20044;-83
2021/10/26 05:47:46;;;;;;;10.00;5.13;;;2.50;90.60;;;;;;5015944;28;20474;-82
2021/10/26 05:50:12;;;;;;;9.80;4.90;;;2.60;90.50;;;;;;5016816;28;20118;-83
2021/10/26 05:52:38;;;;;;;10.07;5.68;;;2.60;90.40;;;;;;5015482;28;20026;-81
2021/10/26 05:55:05;;;;;;;10.55;4.75;;;2.60;90.30;;;;;;5015717;28;20072;-81
2021/10/26 05:57:33;;;;;;;11.65;5.65;;;2.60;90.50;;;;;;5015510;28;20025;-82
2021/10/26 05:59:59;;;;;;;12.82;5.68;;;2.70;90.30;;;;;;5016119;28;20386;-86
2021/10/26 06:02:25;;;;;;;9.02;5.47;;;2.70;90.00;;;;;;5016230;28;20021;-84
2021/10/26 06:04:52;;;;;;;8.63;5.40;;;2.80;89.90;;;;;;5015533;28;20371;-82
2021/10/26 06:07:18;;;;;;;8.57;5.68;;;2.80;89.60;;;;;;5028878;28;20382;-82
2021/10/26 06:09:43;;;;;;;7.95;4.78;;;2.90;89.50;;;;;;5035372;28;20018;-80
2021/10/26 06:12:17;;;;;;;8.98;5.22;;;2.90;89.20;;;;;;5032977;28;20022;-81
2021/10/26 06:14:45;;;;;;;15.00;5.65;;;2.90;89.00;;;;;;5015245;28;20018;-82
2021/10/26 06:17:10;;;;;;;10.73;5.60;;;2.90;88.80;;;;;;5015483;28;20029;-82
2021/10/26 06:19:36;;;;;;;10.48;4.68;;;3.00;88.80;;;;;;5015606;28;20087;-81
2021/10/26 06:22:03;;;;;;;9.98;5.93;;;2.90;88.60;;;;;;5015139;28;20526;-81
2021/10/26 06:24:28;;;;;;;9.27;5.70;;;3.00;88.60;;;;;;5017064;28;20022;-86
2021/10/26 06:26:54;;;;;;;10.70;5.63;;;3.00;88.60;;;;;;5017868;28;20438;-86
2021/10/26 06:29:20;;;;;;;13.65;6.35;;;3.00;88.40;;;;;;5015330;28;20177;-84
2021/10/26 06:31:46;;;;;;;9.77;4.72;;;3.00;88.30;;;;;;5017894;28;20397;-83
2021/10/26 06:34:12;;;;;;;11.73;5.90;;;3.00;88.20;;;;;;5016992;28;20025;-81
2021/10/26 06:36:37;;;;;;;13.38;7.10;;;3.00;88.10;;;;;;5015860;28;20025;-81
2021/10/26 06:39:04;;;;;;;9.45;5.85;;;3.10;88.20;;;;;;5016871;28;20013;-82
2021/10/26 06:41:30;;;;;;;13.13;5.28;;;3.20;87.80;;;;;;5014863;28;20052;-81
2021/10/26 06:43:56;;;;;;;13.15;5.07;;;3.30;87.50;;;;;;5025223;28;20030;-81
2021/10/26 06:46:22;;;;;;;9.20;5.88;;;3.40;87.10;;;;;;5014774;28;20084;-81
2021/10/26 06:48:48;;;;;;;11.75;5.68;;;3.40;87.00;;;;;;5014579;28;20054;-81
2021/10/26 06:51:14;;;;;;;9.68;5.75;;;3.60;86.90;;;;;;5014525;28;20037;-80
2021/10/26 06:53:40;;;;;;;14.45;6.55;;;3.70;86.30;;;;;;5014243;28;20017;-82
2021/10/26 06:56:17;;;;;;;9.35;5.78;;;3.70;86.00;;;;;;5015858;28;20030;-81
2021/10/26 06:58:43;;;;;;;10.65;6.22;;;3.80;85.80;;;;;;5014942;28;20036;-81
2021/10/26 07:01:11;;;;;;;13.35;7.32;;;3.90;85.40;;;;;;5013075;28;20030;-82
2021/10/26 07:03:40;;;;;;;10.18;5.45;;;4.00;84.60;;;;;;5014457;28;20474;-82
2021/10/26 07:06:06;;;;;;;8.68;5.97;;;4.10;84.40;;;;;;5026288;28;20028;-82
2021/10/26 07:08:33;;;;;;;11.30;5.95;;;4.20;84.20;;;;;;5033711;28;20028;-82
2021/10/26 07:10:59;;;;;;;10.05;6.68;;;4.30;83.60;;;;;;5033976;28;20055;-81
2021/10/26 07:13:26;;;;;;;12.52;6.43;;;4.40;83.30;;;;;;5032381;28;20402;-81
2021/10/26 07:15:52;;;;;;;8.88;5.68;;;4.50;82.80;;;;;;5032413;28;20025;-83
2021/10/26 07:18:18;;;;;;;11.05;6.57;;;4.60;82.50;;;;;;5032551;28;20052;-81
2021/10/26 07:20:44;;;;;;;10.35;6.20;;;4.70;82.10;;;;;;5033770;28;20073;-82
2021/10/26 07:23:10;;;;;;;12.73;5.90;;;4.80;81.80;;;;;;5033443;28;20030;-81
2021/10/26 07:25:36;;;;;;;11.10;7.18;;;4.90;81.20;;;;;;5033928;28;20033;-82
2021/10/26 07:28:02;;;;;;;11.10;7.35;;;5.00;81.00;;;;;;5034055;28;20018;-81
2021/10/26 07:30:32;;;;;;;14.10;7.75;;;5.00;80.70;;;;;;5032237;28;20044;-82
2021/10/26 07:33:04;;;;;;;11.85;7.85;;;5.20;80.50;;;;;;5033615;28;20027;-80
2021/10/26 07:36:06;;;;;;;11.02;6.15;;;5.20;80.00;;;;;;5033381;28;20022;-83
2021/10/26 07:38:31;;;;;;;10.25;5.90;;;5.30;79.60;;;;;;5032002;28;20040;-81
2021/10/26 07:40:58;;;;;;;9.60;5.82;;;5.40;79.40;;;;;;5033180;28;20022;-81
2021/10/26 07:43:25;;;;;;;13.77;7.90;;;5.40;79.10;;;;;;5033036;28;20037;-81
2021/10/26 07:45:51;;;;;;;10.75;6.22;;;5.40;78.90;;;;;;5033214;28;20442;-82
2021/10/26 07:48:17;;;;;;;11.85;6.75;;;5.50;78.80;;;;;;5032853;28;20045;-82
2021/10/26 07:50:45;;;;;;;9.60;6.00;;;5.60;78.60;;;;;;5033633;28;20482;-83
2021/10/26 07:53:11;;;;;;;14.65;6.57;;;5.70;77.80;;;;;;5033024;28;20030;-82
2021/10/26 07:55:37;;;;;;;11.25;6.53;;;5.70;77.60;;;;;;5032539;28;20049;-81
2021/10/26 07:58:04;;;;;;;13.38;6.95;;;5.90;77.30;;;;;;5033484;28;20021;-79
2021/10/26 08:00:30;;;;;;;11.77;7.15;;;6.30;77.30;;;;;;5015257;28;20060;-81
2021/10/26 08:02:56;;;;;;;9.75;7.57;;;7.10;76.80;;;;;;5032886;28;20045;-82
2021/10/26 08:05:21;;;;;;;14.20;6.65;;;8.20;74.10;;;;;;5032794;28;20029;-81
2021/10/26 08:07:48;;;;;;;10.82;7.00;;;9.20;71.20;;;;;;5031149;28;20021;-82
2021/10/26 08:10:14;;;;;;;12.60;7.32;;;9.50;66.30;;;;;;5032625;28;20425;-82
2021/10/26 08:12:40;;;;;;;13.95;7.05;;;9.70;65.00;;;;;;5031405;28;20029;-82
2021/10/26 08:15:06;;;;;;;11.05;6.47;;;9.80;64.60;;;;;;5033058;28;20041;-81
2021/10/26 08:17:32;;;;;;;11.05;6.88;;;9.80;63.80;;;;;;5032965;28;20108;-82
2021/10/26 08:19:58;;;;;;;10.38;7.03;;;9.70;63.40;;;;;;5031650;28;20371;-81
2021/10/26 08:22:26;;;;;;;9.77;6.78;;;9.60;63.50;;;;;;5034340;28;20025;-81
2021/10/26 08:24:58;;;;;;;13.32;7.85;;;9.70;63.70;;;;;;5033093;28;20530;-81
2021/10/26 08:27:24;;;;;;;11.20;7.18;;;9.70;63.00;;;;;;5033444;28;20056;-82
2021/10/26 08:30:15;;;;;;;10.93;7.28;;;9.80;63.10;;;;;;5032835;28;20018;-82
2021/10/26 08:35:28;;;;;;;9.15;6.15;;;10.00;62.30;;;;;;5031206;28;20453;-80
2021/10/26 08:37:58;;;;;;;15.38;7.50;;;9.90;61.80;;;;;;5032219;28;20064;-81
2021/10/26 08:40:25;;;;;;;15.07;7.53;;;10.00;61.40;;;;;;5032358;28;20014;-81
2021/10/26 08:42:53;;;;;;;10.93;6.30;;;10.00;61.00;;;;;;5033173;28;20044;-82
2021/10/26 08:45:22;;;;;;;14.20;6.78;;;9.90;60.80;;;;;;5033678;28;20018;-80
2021/10/26 08:47:48;;;;;;;11.48;6.70;;;9.90;60.80;;;;;;5035415;28;20078;-82
2021/10/26 08:50:16;;;;;;;12.75;7.50;;;10.10;60.60;;;;;;5016286;28;20037;-81
2021/10/26 08:52:43;;;;;;;10.50;7.03;;;10.40;60.10;;;;;;5034036;28;20029;-81
2021/10/26 08:55:09;;;;;;;12.82;7.32;;;10.70;59.40;;;;;;5032520;28;20506;-82
2021/10/26 08:57:35;;;;;;;12.27;7.55;;;10.90;58.80;;;;;;5032369;28;20030;-82
2021/10/26 09:00:07;;;;;;;13.57;8.52;;;11.10;58.30;;;;;;5014577;28;20040;-80
2021/10/26 09:02:36;;;;;;;11.32;7.32;;;11.60;57.20;;;;;;5033137;28;20022;-81
2021/10/26 09:05:14;;;;;;;10.82;6.95;;;12.00;56.00;;;;;;5013148;28;20026;-83
2021/10/26 09:07:40;;;;;;;10.35;7.00;;;12.40;55.10;;;;;;5012446;28;20126;-81
2021/10/26 09:10:29;;;;;;;15.27;7.47;;;12.70;53.90;;;;;;5012547;28;20037;-81
2021/10/26 09:18:46;;;;;;;12.82;6.43;;;12.70;52.30;;;;;;5012429;28;20391;-82
2021/10/26 09:21:30;;;;;;;14.65;8.00;;;12.70;52.30;;;;;;5012113;28;20105;-81
2021/10/26 09:23:59;;;;;;;14.88;7.35;;;12.70;52.50;;;;;;5014396;28;20041;-81
2021/10/26 09:26:41;;;;;;;9.77;6.57;;;12.60;52.20;;;;;;5016703;28;20045;-80
2021/10/26 09:29:07;;;;;;;14.90;7.40;;;12.30;51.90;;;;;;5016340;28;20026;-81
2021/10/26 09:31:33;;;;;;;9.88;6.72;;;11.90;53.10;;;;;;5015882;28;20483;-82
2021/10/26 09:34:08;;;;;;;15.70;7.15;;;11.50;53.40;;;;;;5015675;28;20018;-81
2021/10/26 09:36:39;;;;;;;17.23;8.68;;;11.40;54.20;;;;;;5015822;28;20163;-80
2021/10/26 09:39:07;;;;;;;16.73;7.80;;;11.50;54.50;;;;;;5016125;28;20024;-81
2021/10/26 09:41:52;;;;;;;10.20;6.30;;;12.00;53.80;;;;;;5015822;28;20037;-82
2021/10/26 09:44:23;;;;;;;14.57;8.07;;;12.30;52.80;;;;;;5015417;28;20109;-81
2021/10/26 09:46:52;;;;;;;10.88;6.38;;;12.50;52.50;;;;;;5016206;28;20021;-83
2021/10/26 09:49:26;;;;;;;13.52;7.75;;;12.80;51.70;;;;;;5015507;28;20490;-82
2021/10/26 09:52:06;;;;;;;11.20;7.55;;;13.20;51.10;;;;;;5015611;28;20034;-83
2021/10/26 09:54:32;;;;;;;15.57;8.35;;;13.70;50.30;;;;;;5014372;28;20121;-81
2021/10/26 09:57:03;;;;;;;13.20;9.52;;;14.20;49.40;;;;;;5015452;28;20383;-82
2021/10/26 09:59:30;;;;;;;12.40;7.10;;;14.40;48.50;;;;;;5014760;28;20022;-82
2021/10/26 10:02:05;;;;;;;9.73;6.97;;;14.50;48.30;;;;;;5020383;28;20017;-84
2021/10/26 10:04:37;;;;;;;13.70;7.57;;;14.30;47.80;;;;;;5035051;28;20029;-82
2021/10/26 10:07:06;;;;;;;19.27;7.65;;;14.00;47.60;;;;;;5016952;28;20501;-82
2021/10/26 10:09:31;;;;;;;13.52;7.78;;;13.70;47.80;;;;;;5034797;28;20060;-80
2021/10/26 10:12:04;;;;;;;13.95;7.45;;;13.20;48.70;;;;;;5034653;28;20502;-81
2021/10/26 10:14:37;;;;;;;14.45;8.18;;;12.70;49.50;;;;;;5034978;28;20067;-80
2021/10/26 10:17:12;;;;;;;12.93;7.72;;;12.10;50.70;;;;;;5034403;28;20075;-82
2021/10/26 10:19:40;;;;;;;14.13;8.93;;;11.40;51.80;;;;;;5034867;28;20021;-81
2021/10/26 10:22:10;;;;;;;10.15;6.82;;;11.00;52.90;;;;;;5035014;28;20026;-81
2021/10/26 10:24:42;;;;;;;10.98;7.43;;;10.70;53.60;;;;;;5034786;28;20029;-82
2021/10/26 10:27:09;;;;;;;11.63;6.90;;;10.30;54.70;;;;;;5035697;28;20013;-79
2021/10/26 10:29:38;;;;;;;12.75;7.18;;;10.10;55.00;;;;;;5034783;28;20021;-83
2021/10/26 10:32:04;;;;;;;13.43;6.70;;;10.00;55.80;;;;;;5034299;28;20120;-81
2021/10/26 10:34:31;;;;;;;12.05;6.78;;;9.90;56.20;;;;;;5033795;28;20427;-82
2021/10/26 10:37:00;;;;;;;15.25;7.78;;;9.90;56.40;;;;;;5034545;28;20431;-80
2021/10/26 10:39:33;;;;;;;13.68;7.82;;;9.90;56.20;;;;;;5035827;28;20124;-83
2021/10/26 10:42:22;;;;;;;14.55;7.43;;;9.70;56.50;;;;;;5034402;28;20013;-83
2021/10/26 10:44:50;;;;;;;11.23;6.28;;;9.70;56.70;;;;;;5035799;28;20026;-80
2021/10/26 10:47:36;;;;;;;14.35;8.57;;;9.60;56.50;;;;;;5017490;28;20021;-81
2021/10/26 10:50:29;;;;;;;12.15;7.57;;;9.40;57.10;;;;;;5016980;28;20048;-81
2021/10/26 10:53:09;;;;;;;12.23;7.10;;;9.40;57.20;;;;;;5030134;28;20065;-81
2021/10/26 10:55:37;;;;;;;17.88;8.02;;;9.40;57.40;;;;;;5033938;28;20470;-81
2021/10/26 10:58:21;;;;;;;;;;;9.40;57.40;;;;;;5034881;28;20087;-81
2021/10/26 11:00:47;;;;;;;8.35;5.38;;;9.40;57.30;;;;;;5034208;28;19937;-82
2021/10/26 11:03:33;;;;;;;11.43;7.10;;;9.40;56.90;;;;;;5032653;28;20429;-83
2021/10/26 11:06:01;;;;;;;12.45;6.63;;;9.40;57.10;;;;;;5034333;28;20109;-83
2021/10/26 11:08:42;;;;;;;14.00;7.70;;;9.30;56.70;;;;;;5033986;28;20351;-83
2021/10/26 11:11:08;;;;;;;15.00;7.85;;;9.30;57.20;;;;;;5033941;28;20064;-83
2021/10/26 11:13:37;;;;;;;15.32;9.60;;;9.30;57.10;;;;;;5033867;28;20025;-82
2021/10/26 11:16:09;;;;;;;9.65;5.68;;;9.30;56.90;;;;;;5034072;28;20072;-82
2021/10/26 11:18:51;;;;;;;10.85;6.97;;;9.30;56.60;;;;;;5035088;28;20028;-82
2021/10/26 11:21:24;;;;;;;10.90;6.28;;;9.30;56.90;;;;;;5033667;28;20021;-82
2021/10/26 11:24:10;;;;;;;11.10;7.03;;;9.30;56.90;;;;;;5033714;28;20087;-82
2021/10/26 11:26:40;;;;;;;10.88;6.55;;;9.40;56.80;;;;;;5033555;28;20175;-82
2021/10/26 11:29:08;;;;;;;11.70;5.68;;;9.30;56.40;;;;;;5034190;28;20490;-83
2021/10/26 11:31:52;;;;;;;11.18;5.63;;;9.30;56.30;;;;;;5035069;28;20044;-82
2021/10/26 11:34:26;;;;;;;16.02;6.45;;;9.30;56.50;;;;;;5034009;28;20022;-82
2021/10/26 11:37:06;;;;;;;10.82;6.53;;;9.20;56.70;;;;;;5034113;28;20017;-81
2021/10/26 11:39:33;;;;;;;14.15;8.77;;;9.20;56.80;;;;;;5033983;28;20025;-84
2021/10/26 11:42:00;;;;;;;12.35;5.55;;;9.20;57.20;;;;;;5033634;28;20075;-83
2021/10/26 11:44:28;;;;;;;10.30;5.78;;;9.10;56.50;;;;;;5033416;28;20777;-82
2021/10/26 11:46:54;;;;;;;13.70;6.05;;;9.10;56.30;;;;;;5033534;28;20021;-81
2021/10/26 11:49:25;;;;;;;9.90;5.88;;;9.10;56.20;;;;;;5033074;28;20021;-84
2021/10/26 11:51:58;;;;;;;9.90;5.43;;;9.00;56.50;;;;;;5015852;28;20405;-82
2021/10/26 11:54:26;;;;;;;10.93;6.15;;;9.10;56.90;;;;;;5033438;28;20041;-82
2021/10/26 11:57:04;;;;;;;9.48;5.95;;;9.00;56.30;;;;;;5015805;28;20478;-82
2021/10/26 11:59:31;;;;;;;7.88;5.40;;;9.00;56.40;;;;;;5011828;28;20018;-81
2021/10/26 12:01:59;;;;;;;9.52;5.50;;;9.00;56.50;;;;;;5013705;28;20026;-82
2021/10/26 12:04:36;;;;;;;9.65;5.88;;;9.00;56.50;;;;;;5013330;28;20063;-83
2021/10/26 12:07:07;;;;;;;11.80;6.35;;;8.90;56.30;;;;;;5013351;28;20026;-82
2021/10/26 12:09:41;;;;;;;10.05;6.18;;;8.90;56.50;;;;;;4995787;28;20030;-83
2021/10/26 12:12:14;;;;;;;12.57;6.30;;;8.80;56.40;;;;;;5014766;28;20483;-82
2021/10/26 12:14:42;;;;;;;9.20;5.32;;;8.80;56.60;;;;;;5013925;28;20064;-84
2021/10/26 12:17:16;;;;;;;11.32;6.30;;;8.80;56.70;;;;;;5013294;28;20025;-83
2021/10/26 12:20:11;;;;;;;11.15;5.90;;;8.70;56.90;;;;;;5013095;28;20026;-81
2021/10/26 12:22:41;;;;;;;6.78;5.05;;;8.70;57.00;;;;;;5011896;28;20026;-82
2021/10/26 12:25:12;;;;;;;9.90;6.10;;;8.70;56.80;;;;;;5013495;28;20021;-82
2021/10/26 12:27:41;;;;;;;9.90;5.82;;;8.60;56.90;;;;;;5012168;28;20022;-82
2021/10/26 12:30:13;;;;;;;8.65;5.38;;;8.60;57.10;;;;;;5013070;28;20034;-83
2021/10/26 12:32:58;;;;;;;9.30;6.00;;;8.60;57.20;;;;;;5013312;28;20538;-82
2021/10/26 12:35:28;;;;;;;8.10;4.50;;;8.60;57.40;;;;;;4995337;28;20379;-83
2021/10/26 12:38:41;;;;;;;11.90;5.80;;;8.60;57.50;;;;;;5012790;28;20033;-83
2021/10/26 12:41:07;;;;;;;11.23;5.50;;;8.60;57.60;;;;;;5013012;28;20030;-82
2021/10/26 12:43:34;;;;;;;7.80;5.43;;;8.60;57.70;;;;;;5028680;28;20109;-81
2021/10/26 12:46:15;;;;;;;10.40;5.03;;;8.60;57.90;;;;;;5032711;28;20076;-79
2021/10/26 12:48:40;;;;;;;12.50;5.93;;;8.60;57.90;;;;;;5014699;28;20037;-81
2021/10/26 12:51:07;;;;;;;9.93;5.72;;;8.50;57.90;;;;;;5033170;28;20087;-81
2021/10/26 12:53:41;;;;;;;11.40;6.22;;;8.50;57.70;;;;;;5032877;28;20018;-80
2021/10/26 12:56:19;;;;;;;8.55;6.00;;;8.50;57.90;;;;;;5033056;28;20040;-81
2021/10/26 12:58:50;;;;;;;9.00;4.88;;;8.50;57.90;;;;;;5035664;28;20017;-82
2021/10/26 13:01:19;;;;;;;11.13;6.10;;;8.40;57.80;;;;;;5034924;28;20474;-80
2021/10/26 13:04:15;;;;;;;12.60;5.78;;;8.40;57.90;;;;;;5036003;28;20086;-81
2021/10/26 13:07:03;;;;;;;13.18;5.75;;;8.40;58.00;;;;;;5036205;28;20021;-81